Terminal Aerodrome Forecast
Issued by NWS Cleveland, OH

Home | Current Version | Previous Version | Graphics & Text | Print | Product List | Glossary On
Versions: 1 2 3 4 5 6 7 8 9 10 11 12 13 14 15 16 17 18 19
000
FTUS41 KCLE 261450 AAA
TAFMFD
TAF AMD
KMFD 261450Z 2615/2712 28010KT P6SM VCSH SCT015 OVC035
     FM261505 28012KT 2SM -SHRA BKN015 OVC025
     FM261530 28012G20KT 6SM -SHRA BKN015 OVC025
      TEMPO 2619/2620 SCT015 SCT025 OVC060
     FM262000 27014G22KT P6SM SCT025 OVC060
     FM270000 27008KT P6SM SCT060=

USA.gov is the U.S. government's official web portal to all federal, state and local government web resources and services.